createdAt,value
2022-08-19T00:00:56.805Z,504.00
2022-08-19T00:01:56.611Z,503.00
2022-08-19T00:02:57.411Z,505.00
2022-08-19T00:03:56.749Z,501.00
2022-08-19T00:04:56.759Z,500.00
2022-08-19T00:05:56.569Z,503.00
2022-08-19T00:06:58.820Z,504.00
2022-08-19T00:07:58.807Z,502.00
2022-08-19T00:08:56.509Z,507.00
2022-08-19T00:09:56.778Z,504.00
2022-08-19T00:10:56.459Z,505.00
2022-08-19T00:11:56.713Z,504.00
2022-08-19T00:12:56.441Z,501.00
2022-08-19T00:13:56.589Z,506.00
2022-08-19T00:14:56.511Z,507.00
2022-08-19T00:15:56.500Z,507.00
2022-08-19T00:16:56.431Z,505.00
2022-08-19T00:17:56.521Z,506.00
2022-08-19T00:18:57.542Z,509.00
2022-08-19T00:19:57.371Z,510.00
2022-08-19T00:20:56.350Z,505.00
2022-08-19T00:21:56.396Z,494.00
2022-08-19T00:22:56.322Z,500.00
2022-08-19T00:23:56.377Z,508.00
2022-08-19T00:24:56.275Z,502.00
2022-08-19T00:25:57.459Z,502.00
2022-08-19T00:26:56.642Z,511.00
2022-08-19T00:28:18.563Z,508.00
2022-08-19T00:28:56.212Z,513.00
2022-08-19T00:29:56.609Z,505.00
2022-08-19T00:30:57.053Z,498.00
2022-08-19T00:31:56.271Z,502.00
2022-08-19T00:32:56.165Z,505.00
2022-08-19T00:33:56.413Z,498.00
2022-08-19T00:34:56.151Z,497.00
2022-08-19T00:35:57.264Z,496.00
2022-08-19T00:36:56.904Z,498.00
2022-08-19T00:38:17.242Z,494.00
2022-08-19T00:38:57.165Z,489.00
2022-08-19T00:39:56.299Z,490.00
2022-08-19T00:40:56.055Z,489.00
2022-08-19T00:41:56.143Z,491.00
2022-08-19T00:42:56.043Z,487.00
2022-08-19T00:43:56.184Z,487.00
2022-08-19T00:44:56.056Z,485.00
2022-08-19T00:45:57.136Z,485.00
2022-08-19T00:46:58.043Z,484.00
2022-08-19T00:47:56.074Z,480.00
2022-08-19T00:48:55.974Z,482.00
2022-08-19T00:49:56.968Z,478.00
2022-08-19T00:50:55.976Z,479.00
2022-08-19T00:51:56.027Z,480.00
2022-08-19T00:52:55.925Z,479.00
2022-08-19T00:53:56.064Z,479.00
2022-08-19T00:54:55.877Z,475.00
2022-08-19T00:55:55.892Z,478.00
2022-08-19T00:56:55.888Z,476.00
2022-08-19T00:57:55.986Z,479.00
2022-08-19T00:58:55.847Z,484.00
2022-08-19T01:00:01.764Z,479.00
2022-08-19T01:00:56.832Z,478.00
2022-08-19T01:01:56.074Z,477.00
2022-08-19T01:02:55.779Z,480.00
2022-08-19T01:03:58.109Z,480.00
2022-08-19T01:04:55.750Z,476.00
2022-08-19T01:05:55.889Z,480.00
2022-08-19T01:06:55.759Z,479.00
2022-08-19T01:07:55.809Z,478.00
2022-08-19T01:08:55.740Z,479.00
2022-08-19T01:09:55.850Z,479.00
2022-08-19T01:10:55.681Z,478.00
2022-08-19T01:11:56.429Z,477.00
2022-08-19T01:12:55.690Z,474.00
2022-08-19T01:13:55.822Z,475.00
2022-08-19T01:14:55.660Z,473.00
2022-08-19T01:16:16.731Z,471.00
2022-08-19T01:16:55.597Z,468.00
2022-08-19T01:17:55.581Z,466.00
2022-08-19T01:18:55.760Z,469.00
2022-08-19T01:19:55.552Z,470.00
2022-08-19T01:20:55.699Z,471.00
2022-08-19T01:21:55.532Z,471.00
2022-08-19T01:22:55.630Z,472.00
2022-08-19T01:23:55.573Z,472.00
2022-08-19T01:24:56.502Z,471.00
2022-08-19T01:25:55.494Z,469.00
2022-08-19T01:26:55.612Z,468.00
2022-08-19T01:27:55.472Z,471.00
2022-08-19T01:28:59.589Z,471.00
2022-08-19T01:29:56.084Z,472.00
2022-08-19T01:30:56.493Z,474.00
2022-08-19T01:31:55.393Z,474.00
2022-08-19T01:32:55.483Z,476.00
2022-08-19T01:33:55.385Z,478.00
2022-08-19T01:34:55.593Z,479.00
2022-08-19T01:35:56.092Z,481.00
2022-08-19T01:36:56.503Z,474.00
2022-08-19T01:37:55.314Z,469.00
2022-08-19T01:38:55.412Z,466.00
2022-08-19T01:39:55.380Z,463.00
2022-08-19T01:40:58.685Z,461.00
2022-08-19T01:41:55.278Z,463.00
2022-08-19T01:42:56.390Z,465.00
2022-08-19T01:44:13.403Z,469.00
2022-08-19T01:44:56.245Z,469.00
2022-08-19T01:45:55.336Z,472.00
2022-08-19T01:46:55.933Z,475.00
2022-08-19T01:49:04.600Z,554.00
2022-08-19T01:50:04.472Z,494.00
2022-08-19T01:51:04.575Z,494.00
2022-08-19T01:52:04.431Z,492.00
2022-08-19T01:53:07.707Z,491.00
2022-08-19T01:54:04.394Z,493.00
2022-08-19T01:55:04.599Z,492.00
2022-08-19T01:56:04.382Z,490.00
2022-08-19T01:57:04.493Z,490.00
2022-08-19T01:58:04.354Z,491.00
2022-08-19T01:59:04.457Z,490.00
2022-08-19T02:00:04.316Z,490.00
2022-08-19T02:01:05.499Z,488.00
2022-08-19T02:02:05.034Z,488.00
2022-08-19T02:03:04.511Z,492.00
2022-08-19T02:04:04.274Z,496.00
2022-08-19T02:05:05.495Z,497.00
2022-08-19T02:06:04.254Z,499.00
2022-08-19T02:07:04.966Z,498.00
2022-08-19T02:08:04.223Z,495.00
2022-08-19T02:09:05.316Z,492.00
2022-08-19T02:10:04.207Z,489.00
2022-08-19T02:11:05.197Z,488.00
2022-08-19T02:12:04.216Z,489.00
2022-08-19T02:13:04.166Z,487.00
2022-08-19T02:14:04.175Z,485.00
2022-08-19T02:15:04.153Z,484.00
2022-08-19T02:16:04.276Z,484.00
2022-08-19T02:17:04.114Z,485.00
2022-08-19T02:18:04.208Z,486.00
2022-08-19T02:19:04.229Z,488.00
2022-08-19T02:20:04.478Z,484.00
2022-08-19T02:21:04.038Z,484.00
2022-08-19T02:22:04.681Z,487.00
2022-08-19T02:23:04.039Z,486.00
2022-08-19T02:24:05.188Z,491.00
2022-08-19T02:25:04.561Z,494.00
2022-08-19T02:26:04.106Z,497.00
2022-08-19T02:27:03.968Z,496.00
2022-08-19T02:28:04.019Z,497.00
2022-08-19T02:29:03.947Z,495.00
2022-08-19T02:30:03.971Z,494.00
2022-08-19T02:31:03.925Z,497.00
2022-08-19T02:32:04.061Z,497.00
2022-08-19T02:33:03.900Z,494.00
2022-08-19T02:34:26.969Z,493.00
2022-08-19T02:35:03.850Z,492.00
2022-08-19T02:36:04.847Z,492.00
2022-08-19T02:37:04.952Z,494.00
2022-08-19T02:38:03.864Z,496.00
2022-08-19T02:39:03.960Z,497.00
2022-08-19T02:40:03.853Z,502.00
2022-08-19T02:41:05.120Z,494.00
2022-08-19T02:42:03.832Z,496.00
2022-08-19T02:43:03.883Z,501.00
2022-08-19T02:44:30.663Z,503.00
2022-08-19T02:45:04.925Z,507.00
2022-08-19T02:46:03.934Z,508.00
2022-08-19T02:47:03.692Z,497.00
2022-08-19T02:48:10.112Z,503.00
2022-08-19T02:49:04.709Z,499.00
2022-08-19T02:50:05.062Z,497.00
2022-08-19T02:51:03.673Z,506.00
2022-08-19T02:52:05.973Z,493.00
2022-08-19T02:53:03.712Z,486.00
2022-08-19T02:54:03.770Z,484.00
2022-08-19T02:55:04.368Z,480.00
2022-08-19T02:56:03.613Z,489.00
2022-08-19T02:57:03.710Z,486.00
2022-08-19T02:58:03.713Z,486.00
2022-08-19T02:59:03.553Z,488.00
2022-08-19T03:00:03.643Z,485.00
2022-08-19T03:01:03.709Z,484.00
2022-08-19T03:02:03.867Z,479.00
2022-08-19T03:03:03.525Z,476.00
2022-08-19T03:04:03.606Z,476.00
2022-08-19T03:05:03.516Z,477.00
2022-08-19T03:06:03.486Z,477.00
2022-08-19T03:07:10.770Z,479.00
2022-08-19T03:08:04.505Z,480.00
2022-08-19T03:09:03.516Z,480.00
2022-08-19T03:10:03.415Z,478.00
2022-08-19T03:11:03.480Z,479.00
2022-08-19T03:12:03.456Z,483.00
2022-08-19T03:13:04.761Z,481.00
2022-08-19T03:14:03.367Z,479.00
2022-08-19T03:15:03.436Z,479.00
2022-08-19T03:16:03.334Z,481.00
2022-08-19T03:17:03.598Z,480.00
2022-08-19T03:18:03.516Z,479.00
2022-08-19T03:19:03.366Z,480.00
2022-08-19T03:20:03.316Z,480.00
2022-08-19T03:21:03.289Z,478.00
2022-08-19T03:22:03.288Z,480.00
2022-08-19T03:23:03.314Z,481.00
2022-08-19T03:24:03.258Z,482.00
2022-08-19T03:25:03.317Z,481.00
2022-08-19T03:26:15.958Z,479.00
2022-08-19T03:27:04.189Z,475.00
2022-08-19T03:28:03.231Z,476.00
2022-08-19T03:29:04.885Z,476.00
2022-08-19T03:30:03.210Z,475.00
2022-08-19T03:31:03.148Z,476.00
2022-08-19T03:32:04.721Z,476.00
2022-08-19T03:33:03.113Z,478.00
2022-08-19T03:34:03.178Z,479.00
2022-08-19T03:35:03.111Z,479.00
2022-08-19T03:36:03.078Z,480.00
2022-08-19T03:37:03.065Z,476.00
2022-08-19T03:38:03.100Z,476.00
2022-08-19T03:39:03.050Z,476.00
2022-08-19T03:40:04.148Z,479.00
2022-08-19T03:41:03.001Z,479.00
2022-08-19T03:42:32.608Z,477.00
2022-08-19T03:43:04.259Z,480.00
2022-08-19T03:44:02.981Z,480.00
2022-08-19T03:45:03.050Z,479.00
2022-08-19T03:46:02.959Z,481.00
2022-08-19T03:47:03.980Z,480.00
2022-08-19T03:48:02.911Z,482.00
2022-08-19T03:49:02.970Z,483.00
2022-08-19T03:50:02.887Z,483.00
2022-08-19T03:51:02.891Z,482.00
2022-08-19T03:52:02.881Z,487.00
2022-08-19T03:53:05.032Z,486.00
2022-08-19T03:54:02.841Z,488.00
2022-08-19T03:55:02.913Z,489.00
2022-08-19T03:56:02.816Z,491.00
2022-08-19T03:57:02.884Z,491.00
2022-08-19T03:58:02.851Z,491.00
2022-08-19T03:59:02.852Z,495.00
2022-08-19T04:00:12.510Z,496.00
2022-08-19T04:01:03.762Z,494.00
2022-08-19T04:02:03.292Z,492.00
2022-08-19T04:03:02.909Z,490.00
2022-08-19T04:04:03.481Z,490.00
2022-08-19T04:05:02.705Z,492.00
2022-08-19T04:06:02.707Z,491.00
2022-08-19T04:07:02.958Z,492.00
2022-08-19T04:08:02.767Z,491.00
2022-08-19T04:09:02.725Z,490.00
2022-08-19T04:10:03.726Z,491.00
2022-08-19T04:11:03.025Z,494.00
2022-08-19T04:12:02.697Z,496.00
2022-08-19T04:13:02.575Z,497.00
2022-08-19T04:14:23.755Z,497.00
2022-08-19T04:15:02.544Z,495.00
2022-08-19T04:16:02.634Z,496.00
2022-08-19T04:17:03.098Z,494.00
2022-08-19T04:18:02.585Z,495.00
2022-08-19T04:19:02.732Z,494.00
2022-08-19T04:20:07.115Z,494.00
2022-08-19T04:21:02.471Z,494.00
2022-08-19T04:22:02.553Z,496.00
2022-08-19T04:23:03.205Z,496.00
2022-08-19T04:24:03.900Z,497.00
2022-08-19T04:25:02.414Z,495.00
2022-08-19T04:26:03.617Z,495.00
2022-08-19T04:27:02.387Z,497.00
2022-08-19T04:28:02.611Z,498.00
2022-08-19T04:29:02.356Z,498.00
2022-08-19T04:30:02.507Z,497.00
2022-08-19T04:31:02.338Z,497.00
2022-08-19T04:32:08.805Z,495.00
2022-08-19T04:33:03.489Z,496.00
2022-08-19T04:34:03.496Z,493.00
2022-08-19T04:35:16.909Z,498.00
2022-08-19T04:36:03.282Z,498.00
2022-08-19T04:37:04.297Z,497.00
2022-08-19T04:38:02.272Z,497.00
2022-08-19T04:39:02.408Z,497.00
2022-08-19T04:40:02.736Z,494.00
2022-08-19T04:41:14.581Z,490.00
2022-08-19T04:42:02.213Z,490.00
2022-08-19T04:43:02.278Z,490.00
2022-08-19T04:44:04.434Z,490.00
2022-08-19T04:45:02.678Z,491.00
2022-08-19T04:46:02.213Z,495.00
2022-08-19T04:47:02.395Z,492.00
2022-08-19T04:48:20.017Z,489.00
2022-08-19T04:49:10.507Z,489.00
2022-08-19T04:50:04.451Z,488.00
2022-08-19T04:51:02.062Z,486.00
2022-08-19T04:52:04.219Z,487.00
2022-08-19T04:53:02.120Z,484.00
2022-08-19T04:54:03.137Z,485.00
2022-08-19T04:55:02.042Z,483.00
2022-08-19T04:56:03.161Z,482.00
2022-08-19T04:57:02.122Z,485.00
2022-08-19T04:58:04.220Z,485.00
2022-08-19T04:59:01.961Z,484.00
2022-08-19T05:00:02.064Z,484.00
2022-08-19T05:01:02.007Z,485.00
2022-08-19T05:02:02.086Z,484.00
2022-08-19T05:03:01.899Z,487.00
2022-08-19T05:04:02.910Z,487.00
2022-08-19T05:05:01.872Z,487.00
2022-08-19T05:06:01.929Z,487.00
2022-08-19T05:07:02.396Z,486.00
2022-08-19T05:08:01.961Z,486.00
2022-08-19T05:09:01.822Z,482.00
2022-08-19T05:11:11.267Z,538.00
2022-08-19T05:12:11.125Z,474.00
2022-08-19T05:13:11.156Z,468.00
2022-08-19T05:14:11.057Z,470.00
2022-08-19T05:15:12.505Z,472.00
2022-08-19T05:16:11.048Z,475.00
2022-08-19T05:17:27.155Z,476.00
2022-08-19T05:18:12.086Z,479.00
2022-08-19T05:19:12.108Z,485.00
2022-08-19T05:20:10.977Z,490.00
2022-08-19T05:21:11.007Z,488.00
2022-08-19T05:22:10.947Z,480.00
2022-08-19T05:23:19.470Z,475.00
2022-08-19T05:24:11.957Z,476.00
2022-08-19T05:25:13.341Z,473.00
2022-08-19T05:26:11.700Z,468.00
2022-08-19T05:27:11.059Z,466.00
2022-08-19T05:28:10.870Z,469.00
2022-08-19T05:29:10.899Z,469.00
2022-08-19T05:30:10.890Z,464.00
2022-08-19T05:31:10.938Z,456.00
2022-08-19T05:32:10.839Z,455.00
2022-08-19T05:33:10.969Z,456.00
2022-08-19T05:34:18.345Z,457.00
2022-08-19T05:35:11.801Z,460.00
2022-08-19T05:36:11.401Z,461.00
2022-08-19T05:37:10.750Z,458.00
2022-08-19T05:38:11.740Z,457.00
2022-08-19T05:39:10.773Z,456.00
2022-08-19T05:40:10.912Z,458.00
2022-08-19T05:41:10.721Z,457.00
2022-08-19T05:42:10.781Z,454.00
2022-08-19T05:43:10.663Z,452.00
2022-08-19T05:44:10.733Z,452.00
2022-08-19T05:45:10.661Z,456.00
2022-08-19T05:46:10.755Z,454.00
2022-08-19T05:47:10.612Z,451.00
2022-08-19T05:48:11.622Z,454.00
2022-08-19T05:49:10.603Z,450.00
2022-08-19T05:50:10.629Z,451.00
2022-08-19T05:51:10.557Z,452.00
2022-08-19T05:52:10.620Z,454.00
2022-08-19T05:53:10.529Z,452.00
2022-08-19T05:54:32.590Z,453.00
2022-08-19T05:55:10.504Z,450.00
2022-08-19T05:56:31.593Z,455.00
2022-08-19T05:57:10.482Z,450.00
2022-08-19T05:58:10.535Z,457.00
2022-08-19T05:59:10.742Z,457.00
2022-08-19T06:00:10.714Z,462.00
2022-08-19T06:01:10.524Z,456.00
2022-08-19T06:02:10.762Z,457.00
2022-08-19T06:03:12.498Z,457.00
2022-08-19T06:04:10.747Z,457.00
2022-08-19T06:05:10.394Z,455.00
2022-08-19T06:06:10.423Z,456.00
2022-08-19T06:07:12.117Z,453.00
2022-08-19T06:08:10.455Z,454.00
2022-08-19T06:09:10.346Z,458.00
2022-08-19T06:10:10.445Z,455.00
2022-08-19T06:11:10.305Z,457.00
2022-08-19T06:12:11.396Z,456.00
2022-08-19T06:13:10.284Z,452.00
2022-08-19T06:14:10.294Z,461.00
2022-08-19T06:15:11.262Z,455.00
2022-08-19T06:16:10.295Z,453.00
2022-08-19T06:17:10.207Z,453.00
2022-08-19T06:18:10.327Z,453.00
2022-08-19T06:19:10.178Z,453.00
2022-08-19T06:20:10.719Z,451.00
2022-08-19T06:21:10.289Z,451.00
2022-08-19T06:22:10.493Z,454.00
2022-08-19T06:23:10.176Z,457.00
2022-08-19T06:24:11.267Z,448.00
2022-08-19T06:25:10.155Z,455.00
2022-08-19T06:26:11.321Z,454.00
2022-08-19T06:27:10.182Z,449.00
2022-08-19T06:28:33.179Z,456.00
2022-08-19T06:29:10.039Z,455.00
2022-08-19T06:30:11.050Z,453.00
2022-08-19T06:31:10.098Z,452.00
2022-08-19T06:32:10.019Z,456.00
2022-08-19T06:33:10.099Z,453.00
2022-08-19T06:34:09.980Z,451.00
2022-08-19T06:35:11.088Z,453.00
2022-08-19T06:36:09.969Z,451.00
2022-08-19T06:37:10.031Z,452.00
2022-08-19T06:38:09.951Z,453.00
2022-08-19T06:39:11.131Z,446.00
2022-08-19T06:40:10.157Z,447.00
2022-08-19T06:41:09.973Z,443.00
2022-08-19T06:42:11.128Z,443.00
2022-08-19T06:43:10.002Z,446.00
2022-08-19T06:44:09.861Z,452.00
2022-08-19T06:45:09.941Z,451.00
2022-08-19T06:46:10.105Z,442.00
2022-08-19T06:47:14.375Z,448.00
2022-08-19T06:48:12.962Z,442.00
2022-08-19T06:49:09.786Z,445.00
2022-08-19T06:50:09.966Z,445.00
2022-08-19T06:51:09.903Z,439.00
2022-08-19T06:52:09.933Z,446.00
2022-08-19T06:53:09.756Z,487.00
2022-08-19T06:54:31.069Z,496.00
2022-08-19T06:55:09.774Z,466.00
2022-08-19T06:56:09.848Z,443.00
2022-08-19T06:57:09.684Z,441.00
2022-08-19T06:58:09.784Z,442.00
2022-08-19T06:59:09.681Z,439.00
2022-08-19T07:00:12.840Z,437.00
2022-08-19T07:01:09.815Z,446.00
2022-08-19T07:02:11.843Z,444.00
2022-08-19T07:03:10.381Z,447.00
2022-08-19T07:04:09.712Z,444.00
2022-08-19T07:05:09.574Z,444.00
2022-08-19T07:06:21.302Z,453.00
2022-08-19T07:07:19.790Z,464.00
2022-08-19T07:08:14.667Z,470.00
2022-08-19T07:09:19.689Z,482.00
2022-08-19T07:10:13.658Z,457.00
2022-08-19T07:11:18.055Z,454.00
2022-08-19T07:12:13.046Z,447.00
2022-08-19T07:13:14.515Z,447.00
2022-08-19T07:14:24.326Z,444.00
2022-08-19T07:15:21.088Z,446.00
2022-08-19T07:16:16.274Z,445.00
2022-08-19T07:17:15.239Z,448.00
2022-08-19T07:18:16.449Z,443.00
2022-08-19T07:19:15.930Z,445.00
2022-08-19T07:20:22.438Z,442.00
2022-08-19T07:21:19.578Z,439.00
2022-08-19T07:22:20.139Z,439.00
2022-08-19T07:23:16.568Z,428.00
2022-08-19T07:24:26.501Z,445.00
2022-08-19T07:25:43.200Z,448.00
2022-08-19T07:26:19.030Z,447.00
2022-08-19T07:27:17.740Z,439.00
2022-08-19T07:28:24.493Z,447.00
2022-08-19T07:29:19.270Z,444.00
2022-08-19T07:30:13.621Z,446.00
2022-08-19T07:31:17.021Z,453.00
2022-08-19T07:32:14.457Z,466.00
2022-08-19T07:33:15.662Z,457.00
2022-08-19T07:34:12.624Z,455.00
2022-08-19T07:35:12.694Z,449.00
2022-08-19T07:36:13.684Z,450.00
2022-08-19T07:37:14.028Z,444.00
2022-08-19T07:38:13.863Z,443.00
2022-08-19T07:39:12.633Z,443.00
2022-08-19T07:40:09.194Z,438.00
2022-08-19T07:41:09.172Z,443.00
2022-08-19T07:42:09.130Z,445.00
2022-08-19T07:43:12.330Z,448.00
2022-08-19T07:44:10.062Z,447.00
2022-08-19T07:45:09.105Z,441.00
2022-08-19T07:47:09.704Z,442.00
2022-08-19T07:48:10.124Z,443.00
2022-08-19T07:49:09.009Z,446.00
2022-08-19T07:50:09.030Z,441.00
2022-08-19T07:51:08.974Z,445.00
2022-08-19T07:52:09.051Z,472.00
2022-08-19T07:53:09.225Z,468.00
2022-08-19T07:54:08.973Z,470.00
2022-08-19T07:55:40.284Z,454.00
2022-08-19T07:56:09.894Z,461.00
2022-08-19T07:57:09.035Z,463.00
2022-08-19T07:58:08.869Z,457.00
2022-08-19T07:59:09.053Z,449.00
2022-08-19T08:00:08.857Z,444.00
2022-08-19T08:01:30.032Z,452.00
2022-08-19T08:02:08.853Z,467.00
2022-08-19T08:03:08.806Z,470.00
2022-08-19T08:04:08.796Z,474.00
2022-08-19T08:05:08.914Z,474.00
2022-08-19T08:06:08.754Z,471.00
2022-08-19T08:07:09.626Z,470.00
2022-08-19T08:08:08.747Z,473.00
2022-08-19T08:09:08.922Z,475.00
2022-08-19T08:10:14.041Z,437.00
2022-08-19T08:11:09.714Z,438.00
2022-08-19T08:13:18.123Z,527.00
2022-08-19T08:14:29.125Z,484.00
2022-08-19T08:15:18.946Z,458.00
2022-08-19T08:16:18.099Z,448.00
2022-08-19T08:17:17.914Z,451.00
2022-08-19T08:18:18.935Z,457.00
2022-08-19T08:19:25.799Z,465.00
2022-08-19T08:20:18.936Z,454.00
2022-08-19T08:21:17.995Z,460.00
2022-08-19T08:22:17.879Z,467.00
2022-08-19T08:23:17.932Z,469.00
2022-08-19T08:24:17.807Z,471.00
2022-08-19T08:25:18.978Z,472.00
2022-08-19T08:26:19.343Z,465.00
2022-08-19T08:27:19.267Z,465.00
2022-08-19T08:28:18.134Z,464.00
2022-08-19T08:29:17.937Z,467.00
2022-08-19T08:30:17.727Z,470.00
2022-08-19T08:31:17.820Z,470.00
2022-08-19T08:32:17.709Z,469.00
2022-08-19T08:33:17.769Z,472.00
2022-08-19T08:34:19.620Z,468.00
2022-08-19T08:35:18.509Z,460.00
2022-08-19T08:36:17.641Z,455.00
2022-08-19T08:37:17.752Z,462.00
2022-08-19T08:38:17.632Z,455.00
2022-08-19T08:39:17.779Z,449.00
2022-08-19T08:40:17.740Z,444.00
2022-08-19T08:41:17.699Z,443.00
2022-08-19T08:42:18.133Z,440.00
2022-08-19T08:43:18.661Z,441.00
2022-08-19T08:44:20.174Z,452.00
2022-08-19T08:45:18.362Z,460.00
2022-08-19T08:46:30.560Z,464.00
2022-08-19T08:47:18.532Z,466.00
2022-08-19T08:48:22.480Z,464.00
2022-08-19T08:49:18.493Z,471.00
2022-08-19T08:50:17.671Z,475.00
2022-08-19T08:51:20.175Z,475.00
2022-08-19T08:52:18.602Z,470.00
2022-08-19T08:53:17.422Z,461.00
2022-08-19T08:54:18.424Z,458.00
2022-08-19T08:55:17.492Z,454.00
2022-08-19T08:56:18.801Z,450.00
2022-08-19T08:57:17.503Z,445.00
2022-08-19T08:58:17.846Z,445.00
2022-08-19T08:59:17.444Z,447.00
2022-08-19T09:00:17.383Z,452.00
2022-08-19T09:01:18.451Z,449.00
2022-08-19T09:02:17.313Z,448.00
2022-08-19T09:03:17.434Z,446.00
2022-08-19T09:04:17.305Z,450.00
2022-08-19T09:05:18.625Z,443.00
2022-08-19T09:06:17.266Z,448.00
2022-08-19T09:07:26.339Z,445.00
2022-08-19T09:08:19.345Z,444.00
2022-08-19T09:09:17.225Z,443.00
2022-08-19T09:10:17.762Z,450.00
2022-08-19T09:11:17.204Z,463.00
2022-08-19T09:12:18.413Z,466.00
2022-08-19T09:13:18.304Z,467.00
2022-08-19T09:14:40.769Z,461.00
2022-08-19T09:15:18.318Z,463.00
2022-08-19T09:16:17.147Z,469.00
2022-08-19T09:17:17.181Z,468.00
2022-08-19T09:18:19.102Z,470.00
2022-08-19T09:19:17.197Z,473.00
2022-08-19T09:20:18.125Z,460.00
2022-08-19T09:21:17.377Z,455.00
2022-08-19T09:22:25.403Z,454.00
2022-08-19T09:23:18.130Z,453.00
2022-08-19T09:24:18.027Z,450.00
2022-08-19T09:25:17.200Z,452.00
2022-08-19T09:26:18.068Z,452.00
2022-08-19T09:27:18.910Z,456.00
2022-08-19T09:28:22.374Z,465.00
2022-08-19T09:29:17.960Z,466.00
2022-08-19T09:30:17.139Z,455.00
2022-08-19T09:31:22.041Z,447.00
2022-08-19T09:32:26.211Z,447.00
2022-08-19T09:33:17.930Z,443.00
2022-08-19T09:34:21.065Z,444.00
2022-08-19T09:35:17.971Z,461.00
2022-08-19T09:36:21.787Z,450.00
2022-08-19T09:37:18.383Z,442.00
2022-08-19T09:38:17.040Z,439.00
2022-08-19T09:39:16.861Z,437.00
2022-08-19T09:40:17.048Z,440.00
2022-08-19T09:41:16.842Z,439.00
2022-08-19T09:42:30.301Z,438.00
2022-08-19T09:43:33.113Z,438.00
2022-08-19T09:44:18.207Z,444.00
2022-08-19T09:45:16.922Z,448.00
2022-08-19T09:46:18.366Z,453.00
2022-08-19T09:47:16.792Z,452.00
2022-08-19T09:48:19.048Z,453.00
2022-08-19T09:49:18.531Z,447.00
2022-08-19T09:50:16.841Z,445.00
2022-08-19T09:51:16.714Z,448.00
2022-08-19T09:52:16.735Z,453.00
2022-08-19T09:53:16.842Z,450.00
2022-08-19T09:54:16.834Z,451.00
2022-08-19T09:55:17.643Z,449.00
2022-08-19T09:56:16.823Z,445.00
2022-08-19T09:57:17.375Z,446.00
2022-08-19T09:58:16.705Z,443.00
2022-08-19T09:59:16.564Z,443.00
2022-08-19T10:00:16.796Z,445.00
2022-08-19T10:01:16.621Z,444.00
2022-08-19T10:02:16.603Z,445.00
2022-08-19T10:03:17.598Z,399.00
2022-08-19T10:04:19.910Z,403.00
2022-08-19T10:05:16.574Z,394.00
2022-08-19T10:06:17.513Z,394.00
2022-08-19T10:07:17.189Z,442.00
2022-08-19T10:08:16.635Z,478.00
2022-08-19T10:09:17.627Z,476.00
2022-08-19T10:10:17.436Z,477.00
2022-08-19T10:11:27.315Z,471.00
2022-08-19T10:12:17.905Z,469.00
2022-08-19T10:13:17.466Z,473.00
2022-08-19T10:14:16.395Z,475.00
2022-08-19T10:15:16.487Z,480.00
2022-08-19T10:16:16.388Z,479.00
2022-08-19T10:17:19.247Z,477.00
2022-08-19T10:18:16.326Z,476.00
2022-08-19T10:19:16.479Z,477.00
2022-08-19T10:20:17.289Z,478.00
2022-08-19T10:21:17.308Z,479.00
2022-08-19T10:22:17.062Z,474.00
2022-08-19T10:23:17.356Z,458.00
2022-08-19T10:24:16.911Z,461.00
2022-08-19T10:25:16.380Z,463.00
2022-08-19T10:26:16.210Z,466.00
2022-08-19T10:27:16.412Z,472.00
2022-08-19T10:28:16.272Z,473.00
2022-08-19T10:29:32.134Z,478.00
2022-08-19T10:30:17.171Z,478.00
2022-08-19T10:31:16.902Z,459.00
2022-08-19T10:32:16.171Z,453.00
2022-08-19T10:33:53.618Z,450.00
2022-08-19T10:34:27.146Z,445.00
2022-08-19T10:35:22.053Z,444.00
2022-08-19T10:36:17.091Z,444.00
2022-08-19T10:37:16.291Z,445.00
2022-08-19T10:38:17.073Z,444.00
2022-08-19T10:39:16.193Z,445.00
2022-08-19T10:40:16.328Z,446.00
2022-08-19T10:41:16.151Z,444.00
2022-08-19T10:42:16.026Z,448.00
2022-08-19T10:43:17.103Z,452.00
2022-08-19T10:44:15.997Z,466.00
2022-08-19T10:45:16.186Z,472.00
2022-08-19T10:46:16.699Z,471.00
2022-08-19T10:47:17.960Z,465.00
2022-08-19T10:48:16.926Z,459.00
2022-08-19T10:49:16.014Z,451.00
2022-08-19T10:50:16.069Z,450.00
2022-08-19T10:51:22.478Z,453.00
2022-08-19T10:52:18.679Z,453.00
2022-08-19T10:53:15.985Z,448.00
2022-08-19T10:54:15.874Z,445.00
2022-08-19T10:55:17.026Z,442.00
2022-08-19T10:56:15.864Z,443.00
2022-08-19T10:57:15.949Z,442.00
2022-08-19T10:58:16.129Z,441.00
2022-08-19T10:59:15.885Z,437.00
2022-08-19T11:00:15.827Z,439.00
2022-08-19T11:01:15.958Z,437.00
2022-08-19T11:02:17.224Z,437.00
2022-08-19T11:03:17.306Z,439.00
2022-08-19T11:04:15.739Z,438.00
2022-08-19T11:05:15.961Z,436.00
2022-08-19T11:06:15.697Z,437.00
2022-08-19T11:07:15.890Z,437.00
2022-08-19T11:08:22.777Z,437.00
2022-08-19T11:09:16.701Z,436.00
2022-08-19T11:10:21.293Z,438.00
2022-08-19T11:11:16.640Z,439.00
2022-08-19T11:12:15.656Z,441.00
2022-08-19T11:13:15.719Z,442.00
2022-08-19T11:14:15.710Z,446.00
2022-08-19T11:15:15.630Z,449.00
2022-08-19T11:16:17.753Z,445.00
2022-08-19T11:17:15.660Z,442.00
2022-08-19T11:18:15.670Z,446.00
2022-08-19T11:19:16.281Z,446.00
2022-08-19T11:20:17.710Z,450.00
2022-08-19T11:21:15.511Z,445.00
2022-08-19T11:22:16.185Z,443.00
2022-08-19T11:23:15.482Z,440.00
2022-08-19T11:24:17.020Z,440.00
2022-08-19T11:25:15.492Z,440.00
2022-08-19T11:26:15.744Z,441.00
2022-08-19T11:27:15.432Z,439.00
2022-08-19T11:28:16.562Z,438.00
2022-08-19T11:29:15.422Z,436.00
2022-08-19T11:30:15.703Z,431.00
2022-08-19T11:31:15.415Z,430.00
2022-08-19T11:32:16.141Z,432.00
2022-08-19T11:33:15.342Z,438.00
2022-08-19T11:34:15.442Z,437.00
2022-08-19T11:35:15.323Z,437.00
2022-08-19T11:36:15.493Z,439.00
2022-08-19T11:37:15.334Z,440.00
2022-08-19T11:38:15.325Z,442.00
2022-08-19T11:39:15.274Z,442.00
2022-08-19T11:40:15.526Z,442.00
2022-08-19T11:41:15.245Z,441.00
2022-08-19T11:42:15.335Z,442.00
2022-08-19T11:43:15.295Z,442.00
2022-08-19T11:44:15.245Z,442.00
2022-08-19T11:45:15.295Z,441.00
2022-08-19T11:46:15.275Z,440.00
2022-08-19T11:47:15.345Z,439.00
2022-08-19T11:48:15.485Z,438.00
2022-08-19T11:49:15.343Z,438.00
2022-08-19T11:50:15.226Z,437.00
2022-08-19T11:51:15.136Z,436.00
2022-08-19T11:52:16.678Z,436.00
2022-08-19T11:53:15.117Z,436.00
2022-08-19T11:54:15.231Z,434.00
2022-08-19T11:55:15.520Z,435.00
2022-08-19T11:56:15.629Z,437.00
2022-08-19T11:57:15.612Z,437.00
2022-08-19T11:58:18.756Z,438.00
2022-08-19T11:59:15.140Z,437.00
2022-08-19T12:00:17.182Z,437.00
2022-08-19T12:01:16.397Z,436.00
2022-08-19T12:02:16.109Z,435.00
2022-08-19T12:03:15.189Z,434.00
2022-08-19T12:04:15.062Z,435.00
2022-08-19T12:05:15.008Z,437.00
2022-08-19T12:06:15.037Z,436.00
2022-08-19T12:07:15.171Z,440.00
2022-08-19T12:08:15.080Z,454.00
2022-08-19T12:09:15.482Z,464.00
2022-08-19T12:10:18.935Z,463.00
2022-08-19T12:11:14.871Z,462.00
2022-08-19T12:12:14.989Z,464.00
2022-08-19T12:13:14.861Z,468.00
2022-08-19T12:14:16.981Z,474.00
2022-08-19T12:15:14.802Z,473.00
2022-08-19T12:16:15.933Z,477.00
2022-08-19T12:17:14.792Z,483.00
2022-08-19T12:18:19.193Z,487.00
2022-08-19T12:19:14.755Z,489.00
2022-08-19T12:20:15.761Z,495.00
2022-08-19T12:21:14.884Z,488.00
2022-08-19T12:22:14.716Z,481.00
2022-08-19T12:23:14.901Z,490.00
2022-08-19T12:24:14.764Z,492.00
2022-08-19T12:25:16.946Z,491.00
2022-08-19T12:26:14.683Z,500.00
2022-08-19T12:27:14.745Z,494.00
2022-08-19T12:28:15.646Z,495.00
2022-08-19T12:29:14.653Z,630.00
2022-08-19T12:30:14.645Z,487.00
2022-08-19T12:31:14.756Z,485.00
2022-08-19T12:32:14.586Z,472.00
2022-08-19T12:33:14.746Z,468.00